sensor_id;sensor_type;location;lat;lon;timestamp;P1;durP1;ratioP1;P2;durP2;ratioP2
12784;SDS011;6456;42.680;23.260;2022-12-07T00:02:02;38.40;;;23.73;;
12784;SDS011;6456;42.680;23.260;2022-12-07T00:04:29;33.43;;;21.60;;
12784;SDS011;6456;42.680;23.260;2022-12-07T00:06:56;30.53;;;20.17;;
12784;SDS011;6456;42.680;23.260;2022-12-07T00:09:24;30.73;;;20.40;;
12784;SDS011;6456;42.680;23.260;2022-12-07T00:11:52;31.13;;;19.57;;
12784;SDS011;6456;42.680;23.260;2022-12-07T00:14:19;27.97;;;19.90;;
12784;SDS011;6456;42.680;23.260;2022-12-07T00:16:48;33.50;;;20.30;;
12784;SDS011;6456;42.680;23.260;2022-12-07T00:19:17;28.70;;;19.03;;
12784;SDS011;6456;42.680;23.260;2022-12-07T00:21:47;31.23;;;20.03;;
12784;SDS011;6456;42.680;23.260;2022-12-07T00:24:14;28.43;;;19.27;;
12784;SDS011;6456;42.680;23.260;2022-12-07T00:26:42;28.53;;;19.47;;
12784;SDS011;6456;42.680;23.260;2022-12-07T00:29:13;32.37;;;21.50;;
12784;SDS011;6456;42.680;23.260;2022-12-07T00:31:42;33.93;;;21.23;;
12784;SDS011;6456;42.680;23.260;2022-12-07T00:34:11;39.93;;;22.00;;
12784;SDS011;6456;42.680;23.260;2022-12-07T00:36:39;32.40;;;21.27;;
12784;SDS011;6456;42.680;23.260;2022-12-07T00:39:08;33.97;;;21.33;;
12784;SDS011;6456;42.680;23.260;2022-12-07T00:41:35;36.23;;;22.43;;
12784;SDS011;6456;42.680;23.260;2022-12-07T00:44:02;33.40;;;22.23;;
12784;SDS011;6456;42.680;23.260;2022-12-07T00:46:38;32.37;;;22.30;;
12784;SDS011;6456;42.680;23.260;2022-12-07T00:49:05;30.53;;;21.37;;
12784;SDS011;6456;42.680;23.260;2022-12-07T00:51:44;33.70;;;21.07;;
12784;SDS011;6456;42.680;23.260;2022-12-07T00:54:14;31.37;;;21.60;;
12784;SDS011;6456;42.680;23.260;2022-12-07T00:56:41;33.17;;;21.67;;
12784;SDS011;6456;42.680;23.260;2022-12-07T00:59:11;29.27;;;19.80;;
12784;SDS011;6456;42.680;23.260;2022-12-07T01:01:41;30.13;;;20.17;;
12784;SDS011;6456;42.680;23.260;2022-12-07T01:04:09;29.63;;;20.47;;
12784;SDS011;6456;42.680;23.260;2022-12-07T01:06:36;35.30;;;20.97;;
12784;SDS011;6456;42.680;23.260;2022-12-07T01:09:03;31.90;;;21.23;;
12784;SDS011;6456;42.680;23.260;2022-12-07T01:11:31;28.43;;;19.80;;
12784;SDS011;6456;42.680;23.260;2022-12-07T01:13:59;31.33;;;19.77;;
12784;SDS011;6456;42.680;23.260;2022-12-07T01:16:27;32.70;;;19.93;;
12784;SDS011;6456;42.680;23.260;2022-12-07T01:18:57;29.93;;;20.17;;
12784;SDS011;6456;42.680;23.260;2022-12-07T01:21:27;29.53;;;19.93;;
12784;SDS011;6456;42.680;23.260;2022-12-07T01:23:56;31.67;;;20.27;;
12784;SDS011;6456;42.680;23.260;2022-12-07T01:26:24;30.33;;;19.73;;
12784;SDS011;6456;42.680;23.260;2022-12-07T01:28:52;28.87;;;19.47;;
12784;SDS011;6456;42.680;23.260;2022-12-07T01:31:20;32.43;;;19.83;;
12784;SDS011;6456;42.680;23.260;2022-12-07T01:33:50;29.67;;;19.90;;
12784;SDS011;6456;42.680;23.260;2022-12-07T01:36:21;26.87;;;18.60;;
12784;SDS011;6456;42.680;23.260;2022-12-07T01:38:53;29.23;;;19.63;;
12784;SDS011;6456;42.680;23.260;2022-12-07T01:41:22;31.37;;;19.97;;
12784;SDS011;6456;42.680;23.260;2022-12-07T01:46:37;30.00;;;19.13;;
12784;SDS011;6456;42.680;23.260;2022-12-07T01:49:05;27.47;;;18.87;;
12784;SDS011;6456;42.680;23.260;2022-12-07T01:51:36;29.10;;;19.37;;
12784;SDS011;6456;42.680;23.260;2022-12-07T01:54:05;23.97;;;16.77;;
12784;SDS011;6456;42.680;23.260;2022-12-07T01:56:33;27.60;;;17.73;;
12784;SDS011;6456;42.680;23.260;2022-12-07T01:59:00;27.50;;;17.40;;
12784;SDS011;6456;42.680;23.260;2022-12-07T02:01:27;27.60;;;17.43;;
12784;SDS011;6456;42.680;23.260;2022-12-07T02:03:54;25.87;;;17.07;;
12784;SDS011;6456;42.680;23.260;2022-12-07T02:06:23;27.27;;;17.67;;
12784;SDS011;6456;42.680;23.260;2022-12-07T02:08:53;24.67;;;17.07;;
12784;SDS011;6456;42.680;23.260;2022-12-07T02:11:20;27.57;;;17.23;;
12784;SDS011;6456;42.680;23.260;2022-12-07T02:13:48;28.83;;;18.03;;
12784;SDS011;6456;42.680;23.260;2022-12-07T02:16:19;25.80;;;17.10;;
12784;SDS011;6456;42.680;23.260;2022-12-07T02:18:56;24.73;;;15.87;;
12784;SDS011;6456;42.680;23.260;2022-12-07T02:21:38;28.93;;;16.53;;
12784;SDS011;6456;42.680;23.260;2022-12-07T02:24:18;26.53;;;17.47;;
12784;SDS011;6456;42.680;23.260;2022-12-07T02:30:06;26.50;;;16.70;;
12784;SDS011;6456;42.680;23.260;2022-12-07T02:32:40;24.47;;;16.70;;
12784;SDS011;6456;42.680;23.260;2022-12-07T02:35:15;25.10;;;16.70;;
12784;SDS011;6456;42.680;23.260;2022-12-07T02:37:52;25.87;;;17.00;;
12784;SDS011;6456;42.680;23.260;2022-12-07T02:40:27;24.13;;;16.93;;
12784;SDS011;6456;42.680;23.260;2022-12-07T02:43:01;23.10;;;16.63;;
12784;SDS011;6456;42.680;23.260;2022-12-07T02:45:35;24.73;;;17.47;;
12784;SDS011;6456;42.680;23.260;2022-12-07T02:48:05;25.20;;;17.00;;
12784;SDS011;6456;42.680;23.260;2022-12-07T02:50:35;27.27;;;16.97;;
12784;SDS011;6456;42.680;23.260;2022-12-07T02:53:02;25.33;;;16.63;;
12784;SDS011;6456;42.680;23.260;2022-12-07T02:55:32;25.90;;;17.27;;
12784;SDS011;6456;42.680;23.260;2022-12-07T02:58:11;28.50;;;17.23;;
12784;SDS011;6456;42.680;23.260;2022-12-07T03:00:52;27.93;;;17.17;;
12784;SDS011;6456;42.680;23.260;2022-12-07T03:03:25;25.07;;;16.83;;
12784;SDS011;6456;42.680;23.260;2022-12-07T03:06:09;24.33;;;16.13;;
12784;SDS011;6456;42.680;23.260;2022-12-07T03:08:49;26.17;;;16.43;;
12784;SDS011;6456;42.680;23.260;2022-12-07T03:11:23;25.93;;;17.13;;
12784;SDS011;6456;42.680;23.260;2022-12-07T03:13:58;26.73;;;16.67;;
12784;SDS011;6456;42.680;23.260;2022-12-07T03:16:31;25.00;;;16.07;;
12784;SDS011;6456;42.680;23.260;2022-12-07T03:19:02;25.83;;;17.10;;
12784;SDS011;6456;42.680;23.260;2022-12-07T03:21:36;24.87;;;15.97;;
12784;SDS011;6456;42.680;23.260;2022-12-07T03:24:06;25.00;;;16.73;;
12784;SDS011;6456;42.680;23.260;2022-12-07T03:26:39;25.90;;;16.57;;
12784;SDS011;6456;42.680;23.260;2022-12-07T03:29:11;24.57;;;15.90;;
12784;SDS011;6456;42.680;23.260;2022-12-07T03:31:44;30.37;;;17.70;;
12784;SDS011;6456;42.680;23.260;2022-12-07T03:34:16;23.90;;;16.90;;
12784;SDS011;6456;42.680;23.260;2022-12-07T03:36:51;24.97;;;17.67;;
12784;SDS011;6456;42.680;23.260;2022-12-07T03:39:24;29.07;;;17.87;;
12784;SDS011;6456;42.680;23.260;2022-12-07T03:41:57;30.50;;;18.73;;
12784;SDS011;6456;42.680;23.260;2022-12-07T03:44:26;27.47;;;16.80;;
12784;SDS011;6456;42.680;23.260;2022-12-07T03:47:00;29.83;;;18.10;;
12784;SDS011;6456;42.680;23.260;2022-12-07T03:49:31;25.57;;;16.43;;
12784;SDS011;6456;42.680;23.260;2022-12-07T03:52:09;26.57;;;17.60;;
12784;SDS011;6456;42.680;23.260;2022-12-07T03:54:44;26.17;;;17.20;;
12784;SDS011;6456;42.680;23.260;2022-12-07T03:57:18;24.10;;;16.40;;
12784;SDS011;6456;42.680;23.260;2022-12-07T03:59:49;23.03;;;16.57;;
12784;SDS011;6456;42.680;23.260;2022-12-07T04:02:19;28.17;;;16.97;;
12784;SDS011;6456;42.680;23.260;2022-12-07T04:04:46;23.30;;;16.43;;
12784;SDS011;6456;42.680;23.260;2022-12-07T04:07:16;24.77;;;16.20;;
12784;SDS011;6456;42.680;23.260;2022-12-07T04:09:44;26.27;;;16.20;;
12784;SDS011;6456;42.680;23.260;2022-12-07T04:12:11;26.13;;;16.50;;
12784;SDS011;6456;42.680;23.260;2022-12-07T04:14:38;26.43;;;16.23;;
12784;SDS011;6456;42.680;23.260;2022-12-07T04:17:05;28.73;;;17.67;;
12784;SDS011;6456;42.680;23.260;2022-12-07T04:19:34;26.10;;;17.40;;
12784;SDS011;6456;42.680;23.260;2022-12-07T04:22:04;29.17;;;18.17;;
12784;SDS011;6456;42.680;23.260;2022-12-07T04:24:34;26.27;;;16.30;;
12784;SDS011;6456;42.680;23.260;2022-12-07T04:27:01;27.33;;;17.13;;
12784;SDS011;6456;42.680;23.260;2022-12-07T04:29:28;25.60;;;16.97;;
12784;SDS011;6456;42.680;23.260;2022-12-07T04:31:55;27.70;;;18.87;;
12784;SDS011;6456;42.680;23.260;2022-12-07T04:34:22;28.87;;;18.20;;
12784;SDS011;6456;42.680;23.260;2022-12-07T04:36:51;25.70;;;17.47;;
12784;SDS011;6456;42.680;23.260;2022-12-07T04:39:19;27.37;;;18.07;;
12784;SDS011;6456;42.680;23.260;2022-12-07T04:41:48;26.20;;;17.07;;
12784;SDS011;6456;42.680;23.260;2022-12-07T04:44:15;27.33;;;17.37;;
12784;SDS011;6456;42.680;23.260;2022-12-07T04:46:43;28.70;;;17.80;;
12784;SDS011;6456;42.680;23.260;2022-12-07T04:49:10;24.43;;;17.23;;
12784;SDS011;6456;42.680;23.260;2022-12-07T04:51:38;24.80;;;17.10;;
12784;SDS011;6456;42.680;23.260;2022-12-07T04:54:06;29.47;;;18.80;;
12784;SDS011;6456;42.680;23.260;2022-12-07T04:56:34;29.80;;;17.50;;
12784;SDS011;6456;42.680;23.260;2022-12-07T04:59:02;26.27;;;17.27;;
12784;SDS011;6456;42.680;23.260;2022-12-07T05:01:30;25.17;;;17.40;;
12784;SDS011;6456;42.680;23.260;2022-12-07T05:03:58;28.10;;;18.43;;
12784;SDS011;6456;42.680;23.260;2022-12-07T05:06:25;30.10;;;19.27;;
12784;SDS011;6456;42.680;23.260;2022-12-07T05:08:53;28.27;;;19.10;;
12784;SDS011;6456;42.680;23.260;2022-12-07T05:11:21;30.97;;;19.00;;
12784;SDS011;6456;42.680;23.260;2022-12-07T05:14:08;27.53;;;18.20;;
12784;SDS011;6456;42.680;23.260;2022-12-07T05:16:37;29.97;;;17.80;;
12784;SDS011;6456;42.680;23.260;2022-12-07T05:19:05;27.67;;;18.80;;
12784;SDS011;6456;42.680;23.260;2022-12-07T05:21:32;28.70;;;19.53;;
12784;SDS011;6456;42.680;23.260;2022-12-07T05:23:59;25.97;;;18.43;;
12784;SDS011;6456;42.680;23.260;2022-12-07T05:26:30;31.73;;;18.43;;
12784;SDS011;6456;42.680;23.260;2022-12-07T05:28:58;27.00;;;17.90;;
12784;SDS011;6456;42.680;23.260;2022-12-07T05:31:27;25.90;;;18.80;;
12784;SDS011;6456;42.680;23.260;2022-12-07T05:33:54;28.50;;;20.37;;
12784;SDS011;6456;42.680;23.260;2022-12-07T05:36:21;35.93;;;21.37;;
12784;SDS011;6456;42.680;23.260;2022-12-07T05:38:48;28.63;;;19.67;;
12784;SDS011;6456;42.680;23.260;2022-12-07T05:41:15;27.77;;;18.70;;
12784;SDS011;6456;42.680;23.260;2022-12-07T05:44:02;32.23;;;21.03;;
12784;SDS011;6456;42.680;23.260;2022-12-07T05:46:30;31.60;;;19.77;;
12784;SDS011;6456;42.680;23.260;2022-12-07T05:48:57;30.37;;;18.87;;
12784;SDS011;6456;42.680;23.260;2022-12-07T05:51:24;29.23;;;18.17;;
12784;SDS011;6456;42.680;23.260;2022-12-07T05:53:51;29.90;;;19.03;;
12784;SDS011;6456;42.680;23.260;2022-12-07T05:56:18;30.67;;;19.77;;
12784;SDS011;6456;42.680;23.260;2022-12-07T05:58:45;31.10;;;18.57;;
12784;SDS011;6456;42.680;23.260;2022-12-07T06:01:31;32.27;;;19.17;;
12784;SDS011;6456;42.680;23.260;2022-12-07T06:03:58;29.73;;;19.33;;
12784;SDS011;6456;42.680;23.260;2022-12-07T06:06:25;44.07;;;24.07;;
12784;SDS011;6456;42.680;23.260;2022-12-07T06:08:52;35.60;;;22.70;;
12784;SDS011;6456;42.680;23.260;2022-12-07T06:11:19;36.57;;;24.57;;
12784;SDS011;6456;42.680;23.260;2022-12-07T06:14:03;35.30;;;23.80;;
12784;SDS011;6456;42.680;23.260;2022-12-07T06:16:31;38.00;;;24.93;;
12784;SDS011;6456;42.680;23.260;2022-12-07T06:18:58;47.80;;;27.23;;
12784;SDS011;6456;42.680;23.260;2022-12-07T06:21:25;40.07;;;26.67;;
12784;SDS011;6456;42.680;23.260;2022-12-07T06:23:52;39.30;;;26.10;;
12784;SDS011;6456;42.680;23.260;2022-12-07T06:26:19;36.80;;;23.33;;
12784;SDS011;6456;42.680;23.260;2022-12-07T06:28:46;37.47;;;22.50;;
12784;SDS011;6456;42.680;23.260;2022-12-07T06:31:13;34.93;;;22.90;;
12784;SDS011;6456;42.680;23.260;2022-12-07T06:33:42;30.80;;;19.67;;
12784;SDS011;6456;42.680;23.260;2022-12-07T06:36:09;32.20;;;21.13;;
12784;SDS011;6456;42.680;23.260;2022-12-07T06:38:36;32.17;;;21.13;;
12784;SDS011;6456;42.680;23.260;2022-12-07T06:41:03;34.00;;;22.13;;
12784;SDS011;6456;42.680;23.260;2022-12-07T06:43:31;31.83;;;20.50;;
12784;SDS011;6456;42.680;23.260;2022-12-07T06:45:58;33.57;;;21.87;;
12784;SDS011;6456;42.680;23.260;2022-12-07T06:48:25;32.33;;;21.40;;
12784;SDS011;6456;42.680;23.260;2022-12-07T06:50:54;35.50;;;21.23;;
12784;SDS011;6456;42.680;23.260;2022-12-07T06:53:21;35.53;;;21.87;;
12784;SDS011;6456;42.680;23.260;2022-12-07T06:55:47;34.57;;;22.43;;
12784;SDS011;6456;42.680;23.260;2022-12-07T06:58:14;30.23;;;19.67;;
12784;SDS011;6456;42.680;23.260;2022-12-07T07:00:43;34.33;;;22.17;;
12784;SDS011;6456;42.680;23.260;2022-12-07T07:03:10;28.27;;;19.37;;
12784;SDS011;6456;42.680;23.260;2022-12-07T07:05:38;30.80;;;20.30;;
12784;SDS011;6456;42.680;23.260;2022-12-07T07:08:07;34.33;;;20.17;;
12784;SDS011;6456;42.680;23.260;2022-12-07T07:10:34;34.37;;;21.63;;
12784;SDS011;6456;42.680;23.260;2022-12-07T07:13:01;32.23;;;21.17;;
12784;SDS011;6456;42.680;23.260;2022-12-07T07:15:28;37.63;;;21.93;;
12784;SDS011;6456;42.680;23.260;2022-12-07T07:17:56;33.43;;;20.07;;
12784;SDS011;6456;42.680;23.260;2022-12-07T07:20:23;31.07;;;19.60;;
12784;SDS011;6456;42.680;23.260;2022-12-07T07:22:50;32.33;;;20.00;;
12784;SDS011;6456;42.680;23.260;2022-12-07T07:25:18;30.13;;;19.67;;
12784;SDS011;6456;42.680;23.260;2022-12-07T07:27:45;32.13;;;20.30;;
12784;SDS011;6456;42.680;23.260;2022-12-07T07:30:12;32.07;;;20.47;;
12784;SDS011;6456;42.680;23.260;2022-12-07T07:32:39;32.80;;;21.67;;
12784;SDS011;6456;42.680;23.260;2022-12-07T07:35:06;39.33;;;22.03;;
12784;SDS011;6456;42.680;23.260;2022-12-07T07:37:34;39.43;;;22.40;;
12784;SDS011;6456;42.680;23.260;2022-12-07T07:40:01;35.50;;;21.83;;
12784;SDS011;6456;42.680;23.260;2022-12-07T07:42:29;36.93;;;22.47;;
12784;SDS011;6456;42.680;23.260;2022-12-07T07:44:56;39.30;;;22.47;;
12784;SDS011;6456;42.680;23.260;2022-12-07T07:47:23;37.13;;;22.17;;
12784;SDS011;6456;42.680;23.260;2022-12-07T07:49:50;34.40;;;22.30;;
12784;SDS011;6456;42.680;23.260;2022-12-07T07:52:17;34.20;;;21.73;;
12784;SDS011;6456;42.680;23.260;2022-12-07T07:54:44;36.83;;;21.73;;
12784;SDS011;6456;42.680;23.260;2022-12-07T07:57:10;34.83;;;22.37;;
12784;SDS011;6456;42.680;23.260;2022-12-07T07:59:39;37.40;;;23.83;;
12784;SDS011;6456;42.680;23.260;2022-12-07T08:02:06;43.23;;;24.27;;
12784;SDS011;6456;42.680;23.260;2022-12-07T08:04:35;41.23;;;25.33;;
12784;SDS011;6456;42.680;23.260;2022-12-07T08:07:02;55.30;;;30.27;;
12784;SDS011;6456;42.680;23.260;2022-12-07T08:09:29;59.23;;;29.70;;
12784;SDS011;6456;42.680;23.260;2022-12-07T08:11:56;40.67;;;25.73;;
12784;SDS011;6456;42.680;23.260;2022-12-07T08:14:26;45.77;;;25.97;;
12784;SDS011;6456;42.680;23.260;2022-12-07T08:16:55;34.77;;;24.07;;
12784;SDS011;6456;42.680;23.260;2022-12-07T08:19:22;35.50;;;25.13;;
12784;SDS011;6456;42.680;23.260;2022-12-07T08:21:49;48.93;;;29.50;;
12784;SDS011;6456;42.680;23.260;2022-12-07T08:24:16;50.57;;;29.57;;
12784;SDS011;6456;42.680;23.260;2022-12-07T08:26:43;63.53;;;36.07;;
12784;SDS011;6456;42.680;23.260;2022-12-07T08:29:10;51.43;;;30.13;;
12784;SDS011;6456;42.680;23.260;2022-12-07T08:31:39;47.00;;;28.30;;
12784;SDS011;6456;42.680;23.260;2022-12-07T08:34:07;45.17;;;29.10;;
12784;SDS011;6456;42.680;23.260;2022-12-07T08:36:36;46.53;;;29.27;;
12784;SDS011;6456;42.680;23.260;2022-12-07T08:39:03;49.63;;;29.27;;
12784;SDS011;6456;42.680;23.260;2022-12-07T08:41:31;44.93;;;28.77;;
12784;SDS011;6456;42.680;23.260;2022-12-07T08:43:58;50.33;;;30.33;;
12784;SDS011;6456;42.680;23.260;2022-12-07T08:46:25;53.73;;;32.40;;
12784;SDS011;6456;42.680;23.260;2022-12-07T08:48:58;61.03;;;34.80;;
12784;SDS011;6456;42.680;23.260;2022-12-07T08:51:31;51.57;;;32.50;;
12784;SDS011;6456;42.680;23.260;2022-12-07T08:53:58;50.87;;;30.10;;
12784;SDS011;6456;42.680;23.260;2022-12-07T08:56:29;44.63;;;29.97;;
12784;SDS011;6456;42.680;23.260;2022-12-07T08:58:55;46.57;;;29.17;;
12784;SDS011;6456;42.680;23.260;2022-12-07T09:01:24;47.57;;;29.03;;
12784;SDS011;6456;42.680;23.260;2022-12-07T09:03:52;46.40;;;30.07;;
12784;SDS011;6456;42.680;23.260;2022-12-07T09:06:19;50.47;;;30.63;;
12784;SDS011;6456;42.680;23.260;2022-12-07T09:08:48;47.07;;;29.97;;
12784;SDS011;6456;42.680;23.260;2022-12-07T09:11:17;50.53;;;31.10;;
12784;SDS011;6456;42.680;23.260;2022-12-07T09:13:44;47.90;;;31.90;;
12784;SDS011;6456;42.680;23.260;2022-12-07T09:16:11;49.17;;;31.17;;
12784;SDS011;6456;42.680;23.260;2022-12-07T09:18:39;49.77;;;32.10;;
12784;SDS011;6456;42.680;23.260;2022-12-07T09:21:06;49.13;;;31.30;;
12784;SDS011;6456;42.680;23.260;2022-12-07T09:23:34;49.17;;;30.00;;
12784;SDS011;6456;42.680;23.260;2022-12-07T09:26:02;54.73;;;30.10;;
12784;SDS011;6456;42.680;23.260;2022-12-07T09:28:30;54.47;;;32.43;;
12784;SDS011;6456;42.680;23.260;2022-12-07T09:30:58;47.70;;;30.17;;
12784;SDS011;6456;42.680;23.260;2022-12-07T09:33:25;46.87;;;29.83;;
12784;SDS011;6456;42.680;23.260;2022-12-07T09:35:52;46.50;;;32.07;;
12784;SDS011;6456;42.680;23.260;2022-12-07T09:38:19;44.70;;;31.17;;
12784;SDS011;6456;42.680;23.260;2022-12-07T09:40:46;47.70;;;30.07;;
12784;SDS011;6456;42.680;23.260;2022-12-07T09:43:16;50.37;;;31.37;;
12784;SDS011;6456;42.680;23.260;2022-12-07T09:45:47;46.50;;;28.67;;
12784;SDS011;6456;42.680;23.260;2022-12-07T09:48:17;49.50;;;29.93;;
12784;SDS011;6456;42.680;23.260;2022-12-07T09:50:46;42.07;;;28.77;;
12784;SDS011;6456;42.680;23.260;2022-12-07T09:53:15;46.60;;;29.33;;
12784;SDS011;6456;42.680;23.260;2022-12-07T09:55:47;47.77;;;28.03;;
12784;SDS011;6456;42.680;23.260;2022-12-07T09:58:19;43.97;;;27.63;;
12784;SDS011;6456;42.680;23.260;2022-12-07T10:00:48;45.63;;;28.77;;
12784;SDS011;6456;42.680;23.260;2022-12-07T10:03:19;38.17;;;26.23;;
12784;SDS011;6456;42.680;23.260;2022-12-07T10:05:47;39.57;;;24.77;;
12784;SDS011;6456;42.680;23.260;2022-12-07T10:08:17;37.93;;;24.43;;
12784;SDS011;6456;42.680;23.260;2022-12-07T10:10:45;33.23;;;22.50;;
12784;SDS011;6456;42.680;23.260;2022-12-07T10:13:17;36.37;;;23.47;;
12784;SDS011;6456;42.680;23.260;2022-12-07T10:15:49;36.23;;;22.63;;
12784;SDS011;6456;42.680;23.260;2022-12-07T10:18:21;36.50;;;21.30;;
12784;SDS011;6456;42.680;23.260;2022-12-07T10:21:00;33.63;;;21.00;;
12784;SDS011;6456;42.680;23.260;2022-12-07T10:23:58;36.67;;;21.23;;
12784;SDS011;6456;42.680;23.260;2022-12-07T10:26:28;31.27;;;19.23;;
12784;SDS011;6456;42.680;23.260;2022-12-07T10:29:16;31.23;;;21.40;;
12784;SDS011;6456;42.680;23.260;2022-12-07T10:31:49;31.63;;;20.83;;
12784;SDS011;6456;42.680;23.260;2022-12-07T10:34:22;38.10;;;20.00;;
12784;SDS011;6456;42.680;23.260;2022-12-07T10:36:52;36.03;;;20.23;;
12784;SDS011;6456;42.680;23.260;2022-12-07T10:39:20;32.67;;;21.00;;
12784;SDS011;6456;42.680;23.260;2022-12-07T10:41:55;30.77;;;20.73;;
12784;SDS011;6456;42.680;23.260;2022-12-07T10:44:25;29.33;;;20.33;;
12784;SDS011;6456;42.680;23.260;2022-12-07T10:46:58;30.93;;;20.97;;
12784;SDS011;6456;42.680;23.260;2022-12-07T10:49:35;34.00;;;20.23;;
12784;SDS011;6456;42.680;23.260;2022-12-07T10:52:23;33.27;;;20.27;;
12784;SDS011;6456;42.680;23.260;2022-12-07T10:55:10;30.83;;;20.70;;
12784;SDS011;6456;42.680;23.260;2022-12-07T10:57:47;34.10;;;21.17;;
12784;SDS011;6456;42.680;23.260;2022-12-07T11:00:31;39.30;;;19.63;;
12784;SDS011;6456;42.680;23.260;2022-12-07T11:03:21;31.53;;;20.17;;
12784;SDS011;6456;42.680;23.260;2022-12-07T11:05:58;28.83;;;19.40;;
12784;SDS011;6456;42.680;23.260;2022-12-07T11:09:03;29.70;;;19.30;;
12784;SDS011;6456;42.680;23.260;2022-12-07T11:25:10;30.67;;;18.57;;
12784;SDS011;6456;42.680;23.260;2022-12-07T11:27:55;29.53;;;18.37;;
12784;SDS011;6456;42.680;23.260;2022-12-07T11:30:34;35.90;;;18.60;;
12784;SDS011;6456;42.680;23.260;2022-12-07T11:33:25;30.80;;;18.43;;
12784;SDS011;6456;42.680;23.260;2022-12-07T11:36:00;33.67;;;19.37;;
12784;SDS011;6456;42.680;23.260;2022-12-07T11:38:37;28.00;;;18.43;;
12784;SDS011;6456;42.680;23.260;2022-12-07T11:41:23;27.07;;;16.83;;
12784;SDS011;6456;42.680;23.260;2022-12-07T11:44:23;25.23;;;15.83;;
12784;SDS011;6456;42.680;23.260;2022-12-07T12:05:02;30.50;;;16.63;;
12784;SDS011;6456;42.680;23.260;2022-12-07T12:07:46;23.60;;;16.90;;
12784;SDS011;6456;42.680;23.260;2022-12-07T12:10:21;25.03;;;16.87;;
12784;SDS011;6456;42.680;23.260;2022-12-07T12:13:25;28.90;;;16.90;;
12784;SDS011;6456;42.680;23.260;2022-12-07T12:16:25;30.33;;;16.43;;
12784;SDS011;6456;42.680;23.260;2022-12-07T12:19:30;27.70;;;18.00;;
12784;SDS011;6456;42.680;23.260;2022-12-07T12:22:54;37.83;;;17.80;;
12784;SDS011;6456;42.680;23.260;2022-12-07T12:25:27;27.37;;;16.43;;
12784;SDS011;6456;42.680;23.260;2022-12-07T12:44:40;30.70;;;15.10;;
12784;SDS011;6456;42.680;23.260;2022-12-07T12:47:39;24.10;;;15.37;;
12784;SDS011;6456;42.680;23.260;2022-12-07T12:50:19;23.30;;;15.33;;
12784;SDS011;6456;42.680;23.260;2022-12-07T12:52:53;24.57;;;15.97;;
12784;SDS011;6456;42.680;23.260;2022-12-07T12:56:01;23.00;;;15.70;;
12784;SDS011;6456;42.680;23.260;2022-12-07T12:58:55;30.73;;;16.90;;
12784;SDS011;6456;42.680;23.260;2022-12-07T13:01:49;27.97;;;16.30;;
12784;SDS011;6456;42.680;23.260;2022-12-07T13:04:18;26.30;;;16.73;;
12784;SDS011;6456;42.680;23.260;2022-12-07T13:07:04;25.20;;;16.80;;
12784;SDS011;6456;42.680;23.260;2022-12-07T13:09:36;27.57;;;16.00;;
12784;SDS011;6456;42.680;23.260;2022-12-07T13:12:14;24.63;;;15.73;;
12784;SDS011;6456;42.680;23.260;2022-12-07T13:14:56;21.17;;;15.03;;
12784;SDS011;6456;42.680;23.260;2022-12-07T13:20:47;26.73;;;14.97;;
12784;SDS011;6456;42.680;23.260;2022-12-07T13:23:20;18.73;;;13.50;;
12784;SDS011;6456;42.680;23.260;2022-12-07T13:28:42;22.47;;;14.87;;
12784;SDS011;6456;42.680;23.260;2022-12-07T13:34:04;22.60;;;14.70;;
12784;SDS011;6456;42.680;23.260;2022-12-07T13:36:54;22.73;;;14.67;;
12784;SDS011;6456;42.680;23.260;2022-12-07T13:43:12;24.83;;;14.60;;
12784;SDS011;6456;42.680;23.260;2022-12-07T13:45:41;27.67;;;15.03;;
12784;SDS011;6456;42.680;23.260;2022-12-07T13:48:18;28.67;;;15.33;;
12784;SDS011;6456;42.680;23.260;2022-12-07T13:50:54;26.47;;;16.33;;
12784;SDS011;6456;42.680;23.260;2022-12-07T13:53:22;26.47;;;15.07;;
12784;SDS011;6456;42.680;23.260;2022-12-07T13:55:49;24.30;;;15.53;;
12784;SDS011;6456;42.680;23.260;2022-12-07T13:58:17;30.33;;;15.80;;
12784;SDS011;6456;42.680;23.260;2022-12-07T14:00:43;23.43;;;14.50;;
12784;SDS011;6456;42.680;23.260;2022-12-07T14:03:25;20.70;;;14.33;;
12784;SDS011;6456;42.680;23.260;2022-12-07T14:06:14;21.23;;;12.17;;
12784;SDS011;6456;42.680;23.260;2022-12-07T14:09:06;18.27;;;11.40;;
12784;SDS011;6456;42.680;23.260;2022-12-07T14:11:43;17.93;;;11.47;;
12784;SDS011;6456;42.680;23.260;2022-12-07T14:14:11;19.73;;;11.50;;
12784;SDS011;6456;42.680;23.260;2022-12-07T14:16:43;17.97;;;12.03;;
12784;SDS011;6456;42.680;23.260;2022-12-07T14:22:20;26.67;;;12.60;;
12784;SDS011;6456;42.680;23.260;2022-12-07T14:24:50;21.47;;;13.03;;
12784;SDS011;6456;42.680;23.260;2022-12-07T14:27:18;19.90;;;12.10;;
12784;SDS011;6456;42.680;23.260;2022-12-07T14:29:46;19.57;;;11.37;;
12784;SDS011;6456;42.680;23.260;2022-12-07T14:32:21;15.80;;;11.40;;
12784;SDS011;6456;42.680;23.260;2022-12-07T14:34:58;20.20;;;12.17;;
12784;SDS011;6456;42.680;23.260;2022-12-07T14:37:27;18.17;;;11.20;;
12784;SDS011;6456;42.680;23.260;2022-12-07T14:39:55;18.77;;;11.80;;
12784;SDS011;6456;42.680;23.260;2022-12-07T14:42:24;18.37;;;12.50;;
12784;SDS011;6456;42.680;23.260;2022-12-07T14:44:54;20.60;;;12.80;;
12784;SDS011;6456;42.680;23.260;2022-12-07T14:47:21;19.90;;;11.80;;
12784;SDS011;6456;42.680;23.260;2022-12-07T14:49:48;20.27;;;13.10;;
12784;SDS011;6456;42.680;23.260;2022-12-07T14:52:17;18.53;;;12.63;;
12784;SDS011;6456;42.680;23.260;2022-12-07T14:54:48;23.33;;;12.83;;
12784;SDS011;6456;42.680;23.260;2022-12-07T14:57:15;23.20;;;15.13;;
12784;SDS011;6456;42.680;23.260;2022-12-07T14:59:42;27.73;;;16.20;;
12784;SDS011;6456;42.680;23.260;2022-12-07T15:02:09;24.43;;;15.67;;
12784;SDS011;6456;42.680;23.260;2022-12-07T15:04:38;21.73;;;13.57;;
12784;SDS011;6456;42.680;23.260;2022-12-07T15:07:08;23.13;;;14.97;;
12784;SDS011;6456;42.680;23.260;2022-12-07T15:09:41;22.83;;;13.40;;
12784;SDS011;6456;42.680;23.260;2022-12-07T15:12:08;21.20;;;14.40;;
12784;SDS011;6456;42.680;23.260;2022-12-07T15:14:35;26.70;;;15.10;;
12784;SDS011;6456;42.680;23.260;2022-12-07T15:17:02;22.90;;;14.83;;
12784;SDS011;6456;42.680;23.260;2022-12-07T15:19:29;26.87;;;15.63;;
12784;SDS011;6456;42.680;23.260;2022-12-07T15:21:57;32.47;;;16.77;;
12784;SDS011;6456;42.680;23.260;2022-12-07T15:24:25;29.43;;;16.27;;
12784;SDS011;6456;42.680;23.260;2022-12-07T15:26:54;32.97;;;16.93;;
12784;SDS011;6456;42.680;23.260;2022-12-07T15:29:21;25.13;;;16.33;;
12784;SDS011;6456;42.680;23.260;2022-12-07T15:31:48;19.43;;;14.50;;
12784;SDS011;6456;42.680;23.260;2022-12-07T15:34:15;28.87;;;15.87;;
12784;SDS011;6456;42.680;23.260;2022-12-07T15:36:42;41.13;;;22.33;;
12784;SDS011;6456;42.680;23.260;2022-12-07T15:39:09;46.17;;;24.37;;
12784;SDS011;6456;42.680;23.260;2022-12-07T15:41:36;55.00;;;29.77;;
12784;SDS011;6456;42.680;23.260;2022-12-07T15:44:05;46.23;;;27.73;;
12784;SDS011;6456;42.680;23.260;2022-12-07T15:46:49;42.90;;;23.27;;
12784;SDS011;6456;42.680;23.260;2022-12-07T15:49:17;54.17;;;29.97;;
12784;SDS011;6456;42.680;23.260;2022-12-07T15:51:45;41.60;;;25.33;;
12784;SDS011;6456;42.680;23.260;2022-12-07T15:54:13;40.23;;;23.83;;
12784;SDS011;6456;42.680;23.260;2022-12-07T15:56:42;41.83;;;23.83;;